メインページ
METAR-TAF:

METAR-TAF

空港 :

Ingenika Point, ブリティッシュコロンビア州, カナダ

緯度: 56-48N, 経度: 124-54W, 海抜: 680m

METAR: 見つかりません

時間: 08:48 (16:48 UTC)

予報

当レポートは4時間48分前の12:00(UTC)に作成
予報は17日の 12時(UTC)から 18日の 12時(UTC)まで有効
南/南西の風 5kt
視程: 10km
高度3000ftの雲はほとんどない
17日の 16時(UTC)から 17日の 18時(UTC)まで徐々に
南東の風 10kt
高度3000ftの雲は散在している
高度20000ftの雲は散在している
17日の 2100時(UTC)から
の風 12kt、最大18ktの突風を伴う
視程: 10km
高度2000ftの千切れ雲あり
高度3000ftの曇り
18日の 0300時(UTC)から
の風 20kt、最大28ktの突風を伴う
視程: 10km
高度2000ftの千切れ雲あり
高度3000ftの曇り
18日の 03時(UTC)から 18日の 06時(UTC)まで一時的に
視程: 9.7km
高度1500ftの曇り
弱いにわか雪, 雨
18日の 0600時(UTC)から
東/北東の風 22kt、最大30ktの突風を伴う
視程: 6.4km
高度1000ftの曇り
小雪, 雨
18日の 0900時(UTC)から
北東の風 25kt、最大35ktの突風を伴う
視程: 3.2km
高度800ftの曇り
小雨, 靄

TAF: CWWU 171200Z 1712/1812 20005KT P6SM FEW030 BECMG 1716/1718 14010KT SCT030 SCT200 FM172100 10012G18KT P6SM BKN020 OVC030 FM180300 09020G28KT P6SM BKN020 OVC030 TEMPO 1803/1806 6SM -SHSNRA OVC015 FM180600 07022G30KT 4SM -SNRA OVC010 FM180900 05025G35KT 2SM -RA BR OVC008 RMK FCST BASED ON AUTO OBS. NXT FCST BY 171800Z

4,000以上の空港の気象観測と天気予報(METAR報とTAF報)

利用可能な観測所は地図上に黄色い丸と赤い丸で示す。

丸の上にカーソルを重ねると観測所名を参照できる。

次にクリックすると気象観測と天気予報を参照できる。

マップの切り替え:黒色「×」印の緑ボタンをクリックして拡大、「-」印の緑ボタンをクリックして縮小、緑色の三角印をクリックして隣りの地図に切り替え


METAR-TAF: